Time;durP1;ratioP1;P1;durP2;ratioP2;P2;SDS_P1;SDS_P2;PMS_P1;PMS_P2;Temp;Humidity;BMP_temperature;BMP_pressure;BME280_temperature;BME280_humidity;BME280_pressure;Samples;Min_cycle;Max_cycle;Signal;HPM_P1;HPM_P2
2023/11/17 00:01:28;;;;;;;1.60;1.50;;;16.30;66.90;;;;;;5134303;27;20173;-64
2023/11/17 00:03:53;;;;;;;1.48;1.48;;;16.30;66.80;;;;;;5134120;27;20184;-64
2023/11/17 00:06:19;;;;;;;1.40;1.30;;;16.30;67.00;;;;;;5133715;27;20179;-64
2023/11/17 00:08:45;;;;;;;1.83;1.27;;;16.30;66.90;;;;;;5134109;27;20185;-63
2023/11/17 00:11:11;;;;;;;1.63;1.45;;;16.30;66.90;;;;;;5133045;27;20210;-64
2023/11/17 00:13:38;;;;;;;1.35;1.23;;;16.30;66.80;;;;;;5134169;27;20177;-63
2023/11/17 00:16:06;;;;;;;2.60;1.65;;;16.20;66.80;;;;;;5133605;27;20247;-64
2023/11/17 00:18:33;;;;;;;1.35;1.25;;;16.20;66.60;;;;;;5133250;27;20645;-64
2023/11/17 00:20:59;;;;;;;1.30;1.20;;;16.20;66.60;;;;;;5133772;27;20180;-64
2023/11/17 00:23:27;;;;;;;1.50;1.40;;;16.20;66.80;;;;;;5133970;27;20178;-64
2023/11/17 00:25:54;;;;;;;1.88;1.33;;;16.20;66.60;;;;;;5133235;27;20184;-64
2023/11/17 00:28:23;;;;;;;1.30;1.20;;;16.20;66.70;;;;;;5133341;27;20252;-64
2023/11/17 00:30:49;;;;;;;1.83;1.70;;;16.20;66.80;;;;;;5133629;27;20172;-64
2023/11/17 00:33:15;;;;;;;1.58;1.48;;;16.20;66.60;;;;;;5132844;27;20181;-64
2023/11/17 00:35:40;;;;;;;1.38;1.27;;;16.20;66.70;;;;;;5133565;27;20168;-64
2023/11/17 00:38:06;;;;;;;1.85;1.67;;;16.10;66.60;;;;;;5133279;27;20177;-64
2023/11/17 00:40:35;;;;;;;1.45;1.35;;;16.10;66.60;;;;;;5132716;27;20611;-65
2023/11/17 00:43:04;;;;;;;1.55;1.45;;;16.20;66.80;;;;;;5133101;27;20183;-63
2023/11/17 00:45:30;;;;;;;2.00;1.50;;;16.10;66.70;;;;;;5133756;27;20168;-63
2023/11/17 00:47:55;;;;;;;1.40;1.10;;;16.10;66.60;;;;;;5132477;27;20172;-63
2023/11/17 00:50:22;;;;;;;2.38;1.30;;;16.10;66.60;;;;;;5133061;27;20188;-63
2023/11/17 00:52:48;;;;;;;1.40;1.30;;;16.10;66.70;;;;;;5133231;27;20208;-64
2023/11/17 00:55:13;;;;;;;1.48;1.35;;;16.10;66.60;;;;;;5132485;27;20173;-64
2023/11/17 00:57:41;;;;;;;2.42;1.30;;;16.10;66.60;;;;;;5133410;27;20248;-64
2023/11/17 01:00:11;;;;;;;1.40;1.30;;;16.10;66.50;;;;;;5133181;27;20259;-64
2023/11/17 01:02:46;;;;;;;1.50;1.40;;;16.10;66.40;;;;;;5133421;27;20172;-64
2023/11/17 01:05:12;;;;;;;1.95;1.38;;;16.00;66.40;;;;;;5132943;27;20228;-63
2023/11/17 01:07:38;;;;;;;1.40;1.30;;;16.00;66.40;;;;;;5132520;27;20169;-64
2023/11/17 01:10:24;;;;;;;1.92;1.33;;;16.00;66.40;;;;;;5132740;27;20177;-65
2023/11/17 01:12:52;;;;;;;1.20;1.10;;;16.00;66.40;;;;;;5132535;27;20570;-64
2023/11/17 01:15:17;;;;;;;2.47;1.00;;;16.00;66.50;;;;;;5131387;27;20183;-63
2023/11/17 01:17:43;;;;;;;1.20;1.15;;;16.00;66.40;;;;;;5133199;27;20168;-63
2023/11/17 01:20:09;;;;;;;1.40;1.08;;;16.00;66.40;;;;;;5132660;28;20192;-64
2023/11/17 01:22:35;;;;;;;1.13;1.13;;;16.00;66.50;;;;;;5132216;28;20196;-64
2023/11/17 01:25:01;;;;;;;1.38;1.15;;;16.00;66.50;;;;;;5132943;28;20200;-64
2023/11/17 01:27:26;;;;;;;4.82;1.20;;;16.00;66.50;;;;;;5133196;28;20183;-64
2023/11/17 01:29:52;;;;;;;1.13;1.05;;;15.90;66.30;;;;;;5132409;28;20574;-64
2023/11/17 01:32:17;;;;;;;1.40;1.30;;;15.90;66.40;;;;;;5132650;28;20212;-64
2023/11/17 01:34:43;;;;;;;1.30;1.20;;;15.90;66.30;;;;;;5132920;28;20183;-64
2023/11/17 01:37:08;;;;;;;1.30;1.20;;;15.90;66.30;;;;;;5131941;28;20254;-64
2023/11/17 01:39:34;;;;;;;1.00;1.00;;;15.90;66.20;;;;;;5132596;27;20255;-64
2023/11/17 01:41:59;;;;;;;1.50;1.40;;;15.90;66.60;;;;;;5136689;27;20278;-63
2023/11/17 01:44:25;;;;;;;2.08;1.48;;;15.90;66.20;;;;;;5136349;27;20244;-63
2023/11/17 01:46:51;;;;;;;1.13;1.02;;;15.90;66.20;;;;;;5136878;27;20705;-63
2023/11/17 01:49:17;;;;;;;1.30;1.20;;;15.90;66.00;;;;;;5117970;27;20216;-63
2023/11/17 01:51:42;;;;;;;1.40;1.30;;;15.90;66.00;;;;;;5117683;27;20207;-63
2023/11/17 01:54:09;;;;;;;1.00;1.00;;;15.90;66.20;;;;;;5118079;27;20612;-64
2023/11/17 01:56:36;;;;;;;2.28;1.45;;;15.90;66.20;;;;;;5136202;27;20192;-64
2023/11/17 01:59:01;;;;;;;1.30;1.20;;;15.90;66.00;;;;;;5136477;27;20176;-64
2023/11/17 02:01:27;;;;;;;1.15;1.08;;;15.90;66.00;;;;;;5136737;27;20197;-63
2023/11/17 02:03:53;;;;;;;1.58;1.48;;;15.80;66.10;;;;;;5135897;27;20650;-64
2023/11/17 02:06:34;;;;;;;1.10;1.08;;;15.90;65.90;;;;;;5117897;27;20176;-64
2023/11/17 02:09:13;;;;;;;1.30;1.20;;;15.90;66.10;;;;;;5118395;27;20173;-64
2023/11/17 02:11:44;;;;;;;1.30;1.20;;;15.80;66.00;;;;;;5135795;27;20196;-64
2023/11/17 02:14:18;;;;;;;2.00;1.20;;;15.80;66.00;;;;;;5101614;27;20164;-63
2023/11/17 02:16:44;;;;;;;1.13;1.13;;;15.80;66.00;;;;;;5136372;27;20175;-63
2023/11/17 02:19:15;;;;;;;1.05;1.05;;;15.80;65.90;;;;;;5100177;27;20273;-63
2023/11/17 02:21:41;;;;;;;1.48;1.38;;;15.70;65.90;;;;;;5118279;27;20512;-64
2023/11/17 02:24:06;;;;;;;1.00;1.00;;;15.80;66.00;;;;;;5136386;27;20523;-64
2023/11/17 02:26:42;;;;;;;1.15;1.10;;;15.80;66.00;;;;;;5117266;27;20666;-63
2023/11/17 02:29:27;;;;;;;1.20;1.10;;;15.80;66.00;;;;;;5135906;27;20172;-63
2023/11/17 02:31:53;;;;;;;1.50;1.00;;;15.80;65.80;;;;;;5135532;27;20220;-63
2023/11/17 02:34:24;;;;;;;2.22;1.35;;;15.80;65.90;;;;;;5100403;27;20613;-64
2023/11/17 02:36:51;;;;;;;1.42;1.33;;;15.70;65.90;;;;;;5102633;27;20226;-64
2023/11/17 02:39:25;;;;;;;1.55;1.13;;;15.80;66.00;;;;;;5135031;27;20169;-64
2023/11/17 02:41:57;;;;;;;1.10;1.00;;;15.70;65.90;;;;;;5135988;27;20334;-64
2023/11/17 02:44:28;;;;;;;1.17;1.10;;;15.70;65.80;;;;;;5135544;27;20173;-63
2023/11/17 02:46:59;;;;;;;1.13;1.13;;;15.70;65.90;;;;;;5135253;27;20251;-63
2023/11/17 02:49:40;;;;;;;1.27;1.17;;;15.70;65.90;;;;;;5135602;27;20304;-63
2023/11/17 02:52:26;;;;;;;1.27;1.17;;;15.70;65.80;;;;;;5134066;27;20207;-63
2023/11/17 02:54:52;;;;;;;1.45;1.35;;;15.70;65.90;;;;;;5102183;27;20164;-64
2023/11/17 02:57:21;;;;;;;1.30;1.20;;;15.70;65.80;;;;;;5117259;27;21096;-65
2023/11/17 02:59:47;;;;;;;1.30;1.20;;;15.70;65.90;;;;;;5099787;27;20173;-64
2023/11/17 03:02:15;;;;;;;1.10;1.10;;;15.70;66.00;;;;;;5116963;27;20187;-64
2023/11/17 03:04:43;;;;;;;1.35;1.10;;;15.70;66.10;;;;;;5117584;27;20172;-64
2023/11/17 03:07:15;;;;;;;1.27;1.17;;;15.70;65.90;;;;;;5116809;27;20217;-64
2023/11/17 03:09:40;;;;;;;1.25;1.25;;;15.70;65.90;;;;;;5135619;27;20217;-64
2023/11/17 03:12:06;;;;;;;1.60;1.23;;;15.60;65.80;;;;;;5135048;27;20212;-63
2023/11/17 03:14:32;;;;;;;1.30;1.15;;;15.60;65.90;;;;;;5134480;27;20647;-64
2023/11/17 03:17:01;;;;;;;2.13;1.23;;;15.60;65.80;;;;;;5134978;27;20181;-63
2023/11/17 03:19:27;;;;;;;1.40;1.30;;;15.60;65.90;;;;;;5135075;27;20164;-63
2023/11/17 03:21:56;;;;;;;3.10;1.30;;;15.70;65.80;;;;;;5134531;27;20210;-63
2023/11/17 03:24:23;;;;;;;1.35;1.10;;;15.60;65.60;;;;;;5134685;27;20542;-64
2023/11/17 03:26:52;;;;;;;1.27;1.23;;;15.60;65.80;;;;;;5135222;27;20176;-63
2023/11/17 03:29:19;;;;;;;1.15;1.10;;;15.60;65.80;;;;;;5134091;27;20177;-63
2023/11/17 03:31:48;;;;;;;1.52;1.40;;;15.60;65.70;;;;;;5134822;27;20220;-63
2023/11/17 03:34:23;;;;;;;1.30;1.23;;;15.60;65.90;;;;;;5134511;27;20179;-63
2023/11/17 03:37:00;;;;;;;1.25;1.20;;;15.60;65.70;;;;;;5134206;27;20165;-64
2023/11/17 03:39:33;;;;;;;1.05;1.05;;;15.60;65.70;;;;;;5134849;27;20175;-64
2023/11/17 03:41:59;;;;;;;1.40;1.30;;;15.60;65.80;;;;;;5133782;27;20263;-64
2023/11/17 03:44:25;;;;;;;1.40;1.30;;;15.60;66.00;;;;;;5134542;27;20164;-63
2023/11/17 03:46:51;;;;;;;1.10;1.10;;;15.60;65.90;;;;;;5134838;27;20180;-63
2023/11/17 03:49:18;;;;;;;1.20;1.20;;;15.60;65.80;;;;;;5132976;27;20904;-63
2023/11/17 03:51:44;;;;;;;1.35;1.25;;;15.50;65.80;;;;;;5134554;27;20220;-64
2023/11/17 03:54:10;;;;;;;1.30;1.20;;;15.50;65.80;;;;;;5134140;27;20169;-64
2023/11/17 03:56:36;;;;;;;1.52;1.42;;;15.50;65.70;;;;;;5133669;27;20638;-64
2023/11/17 03:59:03;;;;;;;1.20;1.17;;;15.50;65.60;;;;;;5133936;27;20186;-63
2023/11/17 04:01:30;;;;;;;1.38;1.27;;;15.50;65.70;;;;;;5134469;27;20184;-64
2023/11/17 04:03:56;;;;;;;0.90;0.90;;;15.50;65.70;;;;;;5133346;27;20172;-64
2023/11/17 04:06:21;;;;;;;1.40;1.30;;;15.50;65.80;;;;;;5134082;27;20517;-64
2023/11/17 04:08:47;;;;;;;1.13;1.13;;;15.50;65.70;;;;;;5134274;27;20664;-64
2023/11/17 04:11:14;;;;;;;1.45;1.13;;;15.50;65.70;;;;;;5132999;27;20182;-63
2023/11/17 04:13:41;;;;;;;1.10;1.10;;;15.50;65.80;;;;;;5134113;27;20180;-63
2023/11/17 04:16:10;;;;;;;1.40;1.30;;;15.40;65.60;;;;;;5133925;27;20172;-64
2023/11/17 04:18:39;;;;;;;1.30;1.20;;;15.40;65.60;;;;;;5133156;27;20176;-63
2023/11/17 04:21:10;;;;;;;1.23;1.23;;;15.40;65.70;;;;;;5133767;27;20168;-64
2023/11/17 04:23:38;;;;;;;1.52;1.50;;;15.40;66.70;;;;;;5133878;27;20650;-64
2023/11/17 04:26:05;;;;;;;1.35;1.25;;;15.40;65.90;;;;;;5132849;27;20177;-63
2023/11/17 04:28:31;;;;;;;2.50;1.27;;;15.40;65.70;;;;;;5134024;27;20176;-63
2023/11/17 04:30:57;;;;;;;1.83;1.30;;;15.40;65.60;;;;;;5133901;27;20187;-63
2023/11/17 04:33:23;;;;;;;1.20;1.10;;;15.40;65.80;;;;;;5132963;27;20184;-63
2023/11/17 04:35:49;;;;;;;1.75;1.00;;;15.40;65.70;;;;;;5133488;27;20168;-64
2023/11/17 04:38:14;;;;;;;1.15;1.10;;;15.40;65.80;;;;;;5132652;27;20251;-64
2023/11/17 04:40:40;;;;;;;1.00;1.00;;;15.40;65.70;;;;;;5133478;27;20316;-64
2023/11/17 04:43:06;;;;;;;1.45;1.33;;;15.40;65.70;;;;;;5133404;27;20609;-63
2023/11/17 04:45:37;;;;;;;1.67;1.23;;;15.40;65.70;;;;;;5132974;27;20234;-63
2023/11/17 04:48:08;;;;;;;1.27;1.10;;;15.40;65.70;;;;;;5133071;27;20242;-63
2023/11/17 04:50:38;;;;;;;2.08;1.50;;;15.40;65.70;;;;;;5133349;27;20348;-63
2023/11/17 04:53:04;;;;;;;1.10;1.10;;;15.40;65.60;;;;;;5132279;27;20335;-63
2023/11/17 04:55:30;;;;;;;0.95;0.85;;;15.40;65.90;;;;;;5133600;27;20263;-63
2023/11/17 04:57:55;;;;;;;1.42;1.33;;;15.30;65.80;;;;;;5133561;27;20261;-64
2023/11/17 05:00:21;;;;;;;1.20;1.20;;;15.40;65.90;;;;;;5132428;27;20604;-64
2023/11/17 05:02:47;;;;;;;1.30;1.20;;;15.30;65.90;;;;;;5133356;27;20691;-64
2023/11/17 05:05:14;;;;;;;1.40;1.30;;;15.30;65.90;;;;;;5133057;27;20581;-64
2023/11/17 05:07:43;;;;;;;1.48;1.38;;;15.30;65.80;;;;;;5132521;27;20177;-63
2023/11/17 05:10:14;;;;;;;1.15;1.15;;;15.30;65.90;;;;;;5133077;27;20207;-64
2023/11/17 05:12:40;;;;;;;1.52;1.42;;;15.30;65.80;;;;;;5133271;27;20208;-63
2023/11/17 05:15:07;;;;;;;1.30;1.20;;;15.30;65.70;;;;;;5131394;27;20192;-63
2023/11/17 05:17:43;;;;;;;1.58;1.48;;;15.30;65.70;;;;;;5133203;27;20184;-63
2023/11/17 05:20:12;;;;;;;1.55;1.45;;;15.30;65.90;;;;;;5132723;27;20619;-63
2023/11/17 05:22:39;;;;;;;1.13;1.13;;;15.30;65.70;;;;;;5132519;28;20176;-63
2023/11/17 05:25:06;;;;;;;1.30;1.20;;;15.30;65.80;;;;;;5132666;28;20176;-63
2023/11/17 05:27:33;;;;;;;1.20;1.10;;;15.30;65.80;;;;;;5132255;28;20212;-63
2023/11/17 05:29:58;;;;;;;1.35;1.25;;;15.30;65.80;;;;;;5132882;28;20317;-63
2023/11/17 05:32:25;;;;;;;1.40;1.30;;;15.30;65.90;;;;;;5132963;28;20295;-63
2023/11/17 05:34:51;;;;;;;1.52;1.42;;;15.30;65.80;;;;;;5132244;28;20565;-64
2023/11/17 05:37:18;;;;;;;1.50;1.40;;;15.20;65.80;;;;;;5132812;28;20180;-63
2023/11/17 05:39:45;;;;;;;1.60;1.50;;;15.20;65.70;;;;;;5133015;28;20176;-63
2023/11/17 05:42:11;;;;;;;1.50;1.40;;;15.20;65.80;;;;;;5131823;28;20242;-64
2023/11/17 05:44:37;;;;;;;1.38;1.27;;;15.20;65.80;;;;;;5132883;28;20216;-62
2023/11/17 05:47:08;;;;;;;1.63;1.52;;;15.20;65.90;;;;;;5132395;28;20208;-63
2023/11/17 05:49:42;;;;;;;1.60;1.50;;;15.20;66.60;;;;;;5132028;28;20219;-63
2023/11/17 05:52:09;;;;;;;1.60;1.50;;;15.20;65.90;;;;;;5132527;28;20279;-63
2023/11/17 05:54:39;;;;;;;1.70;1.60;;;15.20;65.90;;;;;;5132838;28;20222;-63
2023/11/17 05:57:05;;;;;;;3.05;1.40;;;15.20;66.00;;;;;;5131806;28;20173;-63
2023/11/17 05:59:31;;;;;;;1.58;1.48;;;15.20;65.90;;;;;;5132903;28;20172;-63
2023/11/17 06:01:59;;;;;;;2.13;1.73;;;15.20;65.80;;;;;;5132747;28;20940;-63
2023/11/17 06:04:28;;;;;;;1.83;1.73;;;15.20;65.90;;;;;;5132233;28;20184;-63
2023/11/17 06:06:53;;;;;;;1.67;1.52;;;15.20;66.00;;;;;;5132721;28;20179;-64
2023/11/17 06:09:19;;;;;;;1.48;1.38;;;15.20;65.90;;;;;;5132291;28;20177;-63
2023/11/17 06:11:45;;;;;;;1.40;1.30;;;15.20;65.90;;;;;;5131862;28;20208;-65
2023/11/17 06:14:11;;;;;;;1.48;1.38;;;15.20;65.80;;;;;;5132241;28;20195;-65
2023/11/17 06:16:37;;;;;;;1.90;1.70;;;15.10;65.90;;;;;;5132448;28;20559;-65
2023/11/17 06:19:03;;;;;;;2.38;1.60;;;15.20;66.00;;;;;;5131420;28;20176;-62
2023/11/17 06:21:28;;;;;;;1.60;1.50;;;15.10;65.80;;;;;;5132661;28;20172;-63
2023/11/17 06:23:54;;;;;;;1.60;1.50;;;15.10;65.90;;;;;;5132009;28;20634;-62
2023/11/17 06:26:19;;;;;;;1.40;1.30;;;15.10;65.90;;;;;;5133151;27;20172;-63
2023/11/17 06:28:46;;;;;;;1.52;1.42;;;15.10;65.90;;;;;;5136283;27;20263;-63
2023/11/17 06:31:12;;;;;;;1.52;1.42;;;15.10;65.90;;;;;;5135284;27;20172;-63
2023/11/17 06:33:37;;;;;;;1.48;1.38;;;15.10;65.90;;;;;;5135985;27;20643;-63
2023/11/17 06:36:03;;;;;;;1.70;1.60;;;15.10;65.80;;;;;;5135578;27;20187;-64
2023/11/17 06:38:29;;;;;;;1.80;1.70;;;15.10;65.80;;;;;;5135313;27;20179;-63
2023/11/17 06:40:59;;;;;;;1.80;1.70;;;15.10;65.90;;;;;;5135864;27;20213;-64
2023/11/17 06:43:25;;;;;;;2.03;1.80;;;15.10;66.00;;;;;;5135785;27;20180;-62
2023/11/17 06:45:52;;;;;;;1.75;1.65;;;15.10;66.00;;;;;;5135333;27;20173;-62
2023/11/17 06:48:18;;;;;;;2.20;2.00;;;15.10;66.00;;;;;;5135389;27;20295;-63
2023/11/17 06:50:44;;;;;;;1.75;1.65;;;15.10;65.90;;;;;;5135278;27;20193;-63
2023/11/17 06:53:12;;;;;;;1.83;1.73;;;15.10;65.90;;;;;;5134664;27;20617;-63
2023/11/17 06:55:38;;;;;;;2.17;1.90;;;15.10;66.00;;;;;;5135160;27;20187;-63
2023/11/17 06:58:04;;;;;;;2.70;2.03;;;15.10;65.90;;;;;;5135073;27;20177;-64
2023/11/17 07:00:30;;;;;;;1.63;1.52;;;15.10;65.70;;;;;;5134969;27;20177;-63
2023/11/17 07:02:57;;;;;;;1.67;1.58;;;15.10;65.90;;;;;;5135751;27;20173;-63
2023/11/17 07:05:24;;;;;;;2.17;1.80;;;15.00;66.10;;;;;;5135317;27;20668;-63
2023/11/17 07:07:52;;;;;;;1.83;1.60;;;15.00;66.20;;;;;;5134872;27;20264;-64
2023/11/17 07:10:18;;;;;;;1.90;1.80;;;15.10;66.20;;;;;;5135074;27;20181;-64
2023/11/17 07:12:45;;;;;;;2.30;2.10;;;15.20;66.00;;;;;;5135105;27;20207;-62
2023/11/17 07:15:11;;;;;;;1.70;1.60;;;15.20;65.60;;;;;;5134012;27;20176;-62
2023/11/17 07:17:38;;;;;;;1.77;1.58;;;15.30;66.00;;;;;;5135252;27;20176;-62
2023/11/17 07:20:09;;;;;;;1.65;1.55;;;15.40;65.90;;;;;;5134317;27;20191;-62
2023/11/17 07:22:35;;;;;;;2.20;1.77;;;15.60;65.60;;;;;;5135321;27;20172;-63
2023/11/17 07:25:01;;;;;;;1.70;1.60;;;15.80;65.40;;;;;;5134799;27;20174;-63
2023/11/17 07:27:28;;;;;;;1.92;1.67;;;16.00;65.10;;;;;;5134338;27;20237;-63
2023/11/17 07:29:54;;;;;;;1.65;1.55;;;16.20;64.70;;;;;;5135196;27;20172;-63
2023/11/17 07:32:20;;;;;;;1.70;1.60;;;16.40;64.30;;;;;;5134547;27;20304;-63
2023/11/17 07:34:46;;;;;;;1.52;1.42;;;16.50;64.10;;;;;;5134340;27;20184;-63
2023/11/17 07:37:11;;;;;;;1.30;1.23;;;16.70;63.60;;;;;;5134393;27;20183;-63
2023/11/17 07:39:37;;;;;;;1.83;1.70;;;16.90;63.40;;;;;;5134198;27;20221;-64
2023/11/17 07:42:04;;;;;;;1.60;1.50;;;17.10;62.60;;;;;;5133782;27;20591;-63
2023/11/17 07:44:30;;;;;;;1.50;1.40;;;17.10;62.40;;;;;;5134873;27;20176;-62
2023/11/17 07:46:58;;;;;;;2.90;1.67;;;17.20;62.40;;;;;;5134277;27;20214;-62
2023/11/17 07:49:25;;;;;;;1.80;1.45;;;17.30;62.20;;;;;;5133757;27;20235;-63
2023/11/17 07:51:53;;;;;;;1.50;1.40;;;17.30;62.00;;;;;;5134534;27;20253;-63
2023/11/17 07:54:19;;;;;;;1.60;1.50;;;17.30;62.00;;;;;;5134121;27;20176;-63
2023/11/17 07:56:46;;;;;;;1.55;1.27;;;17.30;61.90;;;;;;5133758;27;20180;-64
2023/11/17 07:59:12;;;;;;;1.50;1.40;;;17.40;62.00;;;;;;5134297;27;20198;-63
2023/11/17 08:01:39;;;;;;;2.45;1.50;;;17.30;62.00;;;;;;5134496;27;20172;-63
2023/11/17 08:04:05;;;;;;;1.73;1.63;;;17.30;62.00;;;;;;5133395;27;20180;-63
2023/11/17 08:06:31;;;;;;;1.80;1.70;;;17.30;62.00;;;;;;5117960;27;20189;-64
2023/11/17 08:08:56;;;;;;;2.03;1.80;;;17.30;62.30;;;;;;5113393;28;20173;-64
2023/11/17 08:11:25;;;;;;;1.80;1.70;;;17.30;62.10;;;;;;5112816;28;20173;-63
2023/11/17 08:13:51;;;;;;;1.95;1.77;;;17.40;62.40;;;;;;5113493;28;20192;-63
2023/11/17 08:16:17;;;;;;;1.70;1.60;;;17.40;62.00;;;;;;5112635;28;20187;-63
2023/11/17 08:18:45;;;;;;;1.90;1.80;;;17.30;62.30;;;;;;5113514;28;20173;-63
2023/11/17 08:21:13;;;;;;;2.25;1.70;;;17.30;62.40;;;;;;5113221;28;20184;-63
2023/11/17 08:23:39;;;;;;;1.70;1.60;;;17.30;62.40;;;;;;5112742;28;20266;-63
2023/11/17 08:26:05;;;;;;;1.73;1.63;;;17.20;62.70;;;;;;5113192;28;20169;-64
2023/11/17 08:28:32;;;;;;;2.03;1.83;;;17.10;62.90;;;;;;5113536;28;20192;-63
2023/11/17 08:30:57;;;;;;;2.45;1.60;;;17.10;63.10;;;;;;5112338;28;20956;-63
2023/11/17 08:33:24;;;;;;;2.40;2.00;;;17.10;63.10;;;;;;5113063;28;20220;-63
2023/11/17 08:35:50;;;;;;;2.28;2.08;;;17.10;63.20;;;;;;5113249;28;20174;-63
2023/11/17 08:38:16;;;;;;;2.08;1.98;;;17.00;63.00;;;;;;5112111;28;20181;-64
2023/11/17 08:40:44;;;;;;;2.08;1.88;;;17.10;63.10;;;;;;5112917;28;20218;-64
2023/11/17 08:43:10;;;;;;;2.60;2.10;;;17.00;63.00;;;;;;5112356;28;20180;-63
2023/11/17 08:45:36;;;;;;;2.60;2.40;;;17.10;63.20;;;;;;5112013;28;20177;-62
2023/11/17 08:48:02;;;;;;;3.83;1.77;;;17.10;63.10;;;;;;5112579;28;20169;-62
2023/11/17 08:50:28;;;;;;;2.72;2.28;;;17.20;63.70;;;;;;5112525;28;20181;-62
2023/11/17 08:52:53;;;;;;;4.65;2.33;;;17.20;63.50;;;;;;5111437;28;20571;-63
2023/11/17 08:55:19;;;;;;;4.53;2.33;;;17.20;63.50;;;;;;5112400;28;20172;-63
2023/11/17 08:57:48;;;;;;;3.92;2.40;;;17.10;64.10;;;;;;5112530;28;20184;-63
2023/11/17 09:00:35;;;;;;;2.88;2.10;;;17.00;64.10;;;;;;5111482;28;20169;-63
2023/11/17 09:03:00;;;;;;;4.05;2.38;;;17.00;64.00;;;;;;5111830;28;20213;-63
2023/11/17 09:05:25;;;;;;;3.85;2.33;;;17.00;64.20;;;;;;5113249;28;20249;-63
2023/11/17 09:07:51;;;;;;;2.47;2.28;;;17.00;64.30;;;;;;5112031;28;20176;-63
2023/11/17 09:10:21;;;;;;;2.13;1.75;;;16.90;64.40;;;;;;5112556;28;20180;-63
2023/11/17 09:12:47;;;;;;;2.42;2.13;;;16.90;64.40;;;;;;5112072;28;20216;-63
2023/11/17 09:15:17;;;;;;;2.60;2.00;;;16.80;64.50;;;;;;5112451;28;20246;-62
2023/11/17 09:17:44;;;;;;;2.33;2.13;;;16.80;64.50;;;;;;5112498;28;20221;-63
2023/11/17 09:20:13;;;;;;;4.40;2.13;;;16.70;64.80;;;;;;5111768;28;20169;-63
2023/11/17 09:22:41;;;;;;;4.20;2.65;;;16.70;64.90;;;;;;5112493;28;20542;-62
2023/11/17 09:25:13;;;;;;;2.47;2.10;;;16.70;65.10;;;;;;5112470;28;20169;-63
2023/11/17 09:27:47;;;;;;;2.75;2.20;;;16.70;65.10;;;;;;5111765;28;20569;-62
2023/11/17 09:30:14;;;;;;;3.42;2.00;;;16.80;65.00;;;;;;5112129;28;20174;-62
2023/11/17 09:32:44;;;;;;;5.43;2.15;;;16.80;64.80;;;;;;5112418;28;20216;-61
2023/11/17 09:35:16;;;;;;;2.95;2.08;;;16.80;64.80;;;;;;5111513;28;20169;-62
2023/11/17 09:37:53;;;;;;;4.57;2.65;;;16.80;64.70;;;;;;5112464;28;20179;-62
2023/11/17 09:40:28;;;;;;;3.40;2.53;;;16.80;64.80;;;;;;5112082;28;20177;-62
2023/11/17 09:42:58;;;;;;;2.53;2.30;;;16.80;64.90;;;;;;5111626;28;20183;-62
2023/11/17 09:45:24;;;;;;;3.88;2.28;;;16.80;64.80;;;;;;5112311;28;20191;-63
2023/11/17 09:47:54;;;;;;;3.13;1.70;;;16.80;65.10;;;;;;5111739;28;20181;-63
2023/11/17 09:50:21;;;;;;;3.25;2.10;;;16.80;65.10;;;;;;5111767;28;20256;-62
2023/11/17 09:52:50;;;;;;;4.28;2.42;;;16.80;65.10;;;;;;5112214;28;20667;-62
2023/11/17 09:55:17;;;;;;;2.63;2.13;;;16.80;65.10;;;;;;5111219;28;20512;-62
2023/11/17 09:57:45;;;;;;;2.95;2.00;;;16.90;65.00;;;;;;5112453;28;20180;-62
2023/11/17 10:00:17;;;;;;;2.35;1.92;;;16.90;65.10;;;;;;5112062;28;20238;-62
2023/11/17 10:02:54;;;;;;;3.28;2.25;;;16.90;65.10;;;;;;5097869;28;20215;-62
2023/11/17 10:05:23;;;;;;;4.60;2.03;;;16.90;65.10;;;;;;5116007;28;20207;-62
2023/11/17 10:08:15;;;;;;;2.85;2.42;;;16.90;65.10;;;;;;5116007;28;20180;-64
2023/11/17 10:10:42;;;;;;;3.22;1.60;;;16.90;65.40;;;;;;5096636;28;20181;-63
2023/11/17 10:13:11;;;;;;;2.20;1.70;;;16.80;65.80;;;;;;5115648;28;20213;-61
2023/11/17 10:15:41;;;;;;;3.88;1.92;;;16.80;65.90;;;;;;5115874;28;20187;-61
2023/11/17 10:18:07;;;;;;;2.55;1.80;;;16.70;65.80;;;;;;5114790;28;20184;-63
2023/11/17 10:20:37;;;;;;;2.17;1.90;;;16.70;66.10;;;;;;5116026;28;20169;-62
2023/11/17 10:23:04;;;;;;;2.35;2.00;;;16.70;66.20;;;;;;5114916;28;20210;-62
2023/11/17 10:25:30;;;;;;;2.20;1.90;;;16.70;66.20;;;;;;5115812;28;20173;-62
2023/11/17 10:27:57;;;;;;;2.20;2.00;;;16.60;66.20;;;;;;5115654;28;20226;-62
2023/11/17 10:30:29;;;;;;;2.63;2.35;;;16.60;66.40;;;;;;5114855;28;20263;-62
2023/11/17 10:33:02;;;;;;;3.03;2.33;;;16.60;66.40;;;;;;5114921;28;20668;-62
2023/11/17 10:35:31;;;;;;;2.60;2.08;;;16.60;66.50;;;;;;5097265;28;20228;-62
2023/11/17 10:37:58;;;;;;;2.20;2.00;;;16.60;66.60;;;;;;5113105;28;20181;-62
2023/11/17 10:40:28;;;;;;;7.10;2.63;;;16.50;66.40;;;;;;5114888;28;20181;-65
2023/11/17 10:43:08;;;;;;;3.45;2.30;;;16.50;66.70;;;;;;5115260;28;20187;-61
2023/11/17 10:45:34;;;;;;;5.55;2.42;;;16.50;66.70;;;;;;5114441;28;20286;-62
2023/11/17 10:48:00;;;;;;;3.25;2.10;;;16.50;66.80;;;;;;5114486;28;20662;-62
2023/11/17 10:50:29;;;;;;;4.10;2.45;;;16.50;67.00;;;;;;5114852;28;20272;-62
2023/11/17 10:53:03;;;;;;;3.15;2.20;;;16.50;66.90;;;;;;5114245;28;20236;-66
2023/11/17 10:55:33;;;;;;;3.08;2.10;;;16.50;66.50;;;;;;5080946;28;20173;-67
2023/11/17 10:58:07;;;;;;;5.05;2.60;;;16.60;66.20;;;;;;5114763;28;20181;-68
2023/11/17 11:00:38;;;;;;;2.33;2.13;;;16.60;66.00;;;;;;5115268;28;20173;-68
2023/11/17 11:03:07;;;;;;;3.78;2.25;;;16.60;66.00;;;;;;5114805;28;20192;-68
2023/11/17 11:05:32;;;;;;;2.55;2.22;;;16.60;66.00;;;;;;5114288;28;20181;-67
2023/11/17 11:07:58;;;;;;;4.15;2.78;;;16.60;65.80;;;;;;5114697;28;20684;-67
2023/11/17 11:10:26;;;;;;;3.30;2.30;;;16.60;65.80;;;;;;5097013;28;20193;-67
2023/11/17 11:12:54;;;;;;;3.28;1.92;;;16.60;65.90;;;;;;5112938;28;20578;-67
2023/11/17 11:15:20;;;;;;;2.45;2.25;;;16.70;65.80;;;;;;5113614;28;20191;-66
2023/11/17 11:17:55;;;;;;;3.40;2.20;;;16.70;65.60;;;;;;5114743;28;20177;-66
2023/11/17 11:20:21;;;;;;;3.85;2.70;;;16.60;65.80;;;;;;5113652;28;20176;-68
2023/11/17 11:22:48;;;;;;;2.30;2.10;;;16.70;65.80;;;;;;5096161;28;20304;-64
2023/11/17 11:25:15;;;;;;;2.65;2.22;;;16.70;66.10;;;;;;5113726;28;20256;-64
2023/11/17 11:27:40;;;;;;;3.63;1.80;;;16.60;66.50;;;;;;5094239;28;20170;-64
2023/11/17 11:30:07;;;;;;;4.15;2.53;;;16.60;66.80;;;;;;5078886;28;20176;-63
2023/11/17 11:32:34;;;;;;;2.03;1.77;;;16.60;66.50;;;;;;5114250;28;20240;-63
2023/11/17 11:35:00;;;;;;;2.92;2.17;;;16.60;66.90;;;;;;5078546;28;20183;-63
2023/11/17 11:37:32;;;;;;;3.47;2.38;;;16.50;67.20;;;;;;5114240;28;20169;-63
2023/11/17 11:39:58;;;;;;;2.22;2.03;;;16.50;67.20;;;;;;5096838;28;20678;-63
2023/11/17 11:42:24;;;;;;;4.70;2.30;;;16.50;67.30;;;;;;5113659;28;20189;-63
2023/11/17 11:44:51;;;;;;;3.67;1.70;;;16.50;67.30;;;;;;5095689;28;20169;-62
2023/11/17 11:47:17;;;;;;;2.28;1.98;;;16.50;67.30;;;;;;5113318;27;20665;-62
2023/11/17 11:49:43;;;;;;;3.10;2.00;;;16.50;67.40;;;;;;5093360;28;20232;-62
2023/11/17 11:52:16;;;;;;;2.80;1.90;;;16.50;67.20;;;;;;5095732;28;20569;-62
2023/11/17 11:54:42;;;;;;;2.45;1.95;;;16.50;67.40;;;;;;5099140;27;20191;-63
2023/11/17 11:57:31;;;;;;;2.78;1.98;;;16.50;67.40;;;;;;5115970;27;20173;-63
2023/11/17 12:00:00;;;;;;;2.58;2.10;;;16.50;67.40;;;;;;5134349;27;20176;-63
2023/11/17 12:02:25;;;;;;;2.47;1.73;;;16.40;67.40;;;;;;5134009;27;20203;-63
2023/11/17 12:04:54;;;;;;;2.47;1.88;;;16.50;67.40;;;;;;5134204;27;20619;-63
2023/11/17 12:07:33;;;;;;;5.28;2.22;;;16.50;67.00;;;;;;5133885;27;20545;-63
2023/11/17 12:09:59;;;;;;;5.20;2.00;;;16.50;66.80;;;;;;5133173;27;20176;-63
2023/11/17 12:12:25;;;;;;;3.15;1.90;;;16.60;66.90;;;;;;5134125;27;20212;-62
2023/11/17 12:14:51;;;;;;;4.72;2.00;;;16.60;66.70;;;;;;5115740;27;20900;-62
2023/11/17 12:17:16;;;;;;;5.25;1.65;;;16.60;66.50;;;;;;5115208;27;20255;-62
2023/11/17 12:19:42;;;;;;;3.40;1.88;;;16.60;66.50;;;;;;5134281;27;20260;-62
2023/11/17 12:22:10;;;;;;;6.47;1.92;;;16.60;66.40;;;;;;5133662;27;20357;-62
2023/11/17 12:24:37;;;;;;;4.05;1.90;;;16.60;67.30;;;;;;5132866;27;20179;-62
2023/11/17 12:27:04;;;;;;;2.67;1.60;;;16.60;66.60;;;;;;5133421;27;20180;-63
2023/11/17 12:29:31;;;;;;;2.80;1.85;;;16.60;67.50;;;;;;5133186;27;20215;-62
2023/11/17 12:32:03;;;;;;;12.15;3.50;;;16.60;67.00;;;;;;5133652;27;20208;-65
2023/11/17 12:34:28;;;;;;;3.83;1.90;;;16.60;67.00;;;;;;5133924;27;20195;-62
2023/11/17 12:36:56;;;;;;;7.07;2.20;;;16.60;67.10;;;;;;5114289;27;20474;-68
2023/11/17 12:39:37;;;;;;;2.75;1.85;;;16.60;66.80;;;;;;5133239;27;20176;-67
2023/11/17 12:42:04;;;;;;;4.75;2.50;;;16.60;66.90;;;;;;5133362;27;20176;-65
2023/11/17 12:44:35;;;;;;;6.93;1.95;;;16.60;66.80;;;;;;5132955;27;20173;-65
2023/11/17 12:47:00;;;;;;;6.13;1.75;;;16.60;67.00;;;;;;5114791;27;20172;-65
2023/11/17 12:49:26;;;;;;;5.10;2.08;;;16.60;67.10;;;;;;5133374;27;20227;-65
2023/11/17 12:51:51;;;;;;;5.03;2.08;;;16.60;67.10;;;;;;5131187;27;20718;-64